sensor_id;sensor_type;location;lat;lon;timestamp;temperature;humidity
14099;DHT22;7126;48.458;7.930;2023-11-22T00:02:16;10.00;99.90
14099;DHT22;7126;48.458;7.930;2023-11-22T00:04:41;10.00;99.90
14099;DHT22;7126;48.458;7.930;2023-11-22T00:07:07;10.00;99.90
14099;DHT22;7126;48.458;7.930;2023-11-22T00:09:32;10.00;99.90
14099;DHT22;7126;48.458;7.930;2023-11-22T00:11:58;10.00;99.90
14099;DHT22;7126;48.458;7.930;2023-11-22T00:14:25;10.00;99.90
14099;DHT22;7126;48.458;7.930;2023-11-22T00:16:51;10.00;99.90
14099;DHT22;7126;48.458;7.930;2023-11-22T00:19:17;10.00;99.90
14099;DHT22;7126;48.458;7.930;2023-11-22T00:21:47;10.00;99.90
14099;DHT22;7126;48.458;7.930;2023-11-22T00:24:13;10.00;99.90
14099;DHT22;7126;48.458;7.930;2023-11-22T00:26:38;10.00;99.90
14099;DHT22;7126;48.458;7.930;2023-11-22T00:29:04;10.00;99.90
14099;DHT22;7126;48.458;7.930;2023-11-22T00:31:30;10.00;99.90
14099;DHT22;7126;48.458;7.930;2023-11-22T00:33:56;10.00;99.90
14099;DHT22;7126;48.458;7.930;2023-11-22T00:36:21;10.00;99.90
14099;DHT22;7126;48.458;7.930;2023-11-22T00:38:47;10.00;99.90
14099;DHT22;7126;48.458;7.930;2023-11-22T00:41:13;10.00;99.90
14099;DHT22;7126;48.458;7.930;2023-11-22T00:43:40;10.00;99.90
14099;DHT22;7126;48.458;7.930;2023-11-22T00:46:05;10.00;99.90
14099;DHT22;7126;48.458;7.930;2023-11-22T00:48:34;10.00;99.90
14099;DHT22;7126;48.458;7.930;2023-11-22T00:50:59;10.00;99.90
14099;DHT22;7126;48.458;7.930;2023-11-22T00:53:25;9.90;99.90
14099;DHT22;7126;48.458;7.930;2023-11-22T00:55:50;9.90;99.90
14099;DHT22;7126;48.458;7.930;2023-11-22T00:58:16;9.90;99.90
14099;DHT22;7126;48.458;7.930;2023-11-22T01:00:42;9.90;99.90
14099;DHT22;7126;48.458;7.930;2023-11-22T01:03:08;9.80;99.90
14099;DHT22;7126;48.458;7.930;2023-11-22T01:05:37;9.90;99.90
14099;DHT22;7126;48.458;7.930;2023-11-22T01:08:02;9.80;99.90
14099;DHT22;7126;48.458;7.930;2023-11-22T01:10:28;9.80;99.90
14099;DHT22;7126;48.458;7.930;2023-11-22T01:12:53;9.80;99.90
14099;DHT22;7126;48.458;7.930;2023-11-22T01:15:19;9.70;99.90
14099;DHT22;7126;48.458;7.930;2023-11-22T01:17:45;9.70;99.90
14099;DHT22;7126;48.458;7.930;2023-11-22T01:20:11;9.60;99.90
14099;DHT22;7126;48.458;7.930;2023-11-22T01:22:36;9.60;99.90
14099;DHT22;7126;48.458;7.930;2023-11-22T01:25:04;9.60;99.90
14099;DHT22;7126;48.458;7.930;2023-11-22T01:27:30;9.60;99.90
14099;DHT22;7126;48.458;7.930;2023-11-22T01:29:55;9.60;99.90
14099;DHT22;7126;48.458;7.930;2023-11-22T01:32:21;9.50;99.90
14099;DHT22;7126;48.458;7.930;2023-11-22T01:34:46;9.40;99.90
14099;DHT22;7126;48.458;7.930;2023-11-22T01:37:12;9.40;99.90
14099;DHT22;7126;48.458;7.930;2023-11-22T01:39:39;9.40;99.90
14099;DHT22;7126;48.458;7.930;2023-11-22T01:42:07;9.30;99.90
14099;DHT22;7126;48.458;7.930;2023-11-22T01:44:32;9.30;99.90
14099;DHT22;7126;48.458;7.930;2023-11-22T01:46:58;9.20;99.90
14099;DHT22;7126;48.458;7.930;2023-11-22T01:49:23;9.10;99.90
14099;DHT22;7126;48.458;7.930;2023-11-22T01:51:49;9.10;99.90
14099;DHT22;7126;48.458;7.930;2023-11-22T01:54:15;9.10;99.90
14099;DHT22;7126;48.458;7.930;2023-11-22T01:56:44;9.10;99.90
14099;DHT22;7126;48.458;7.930;2023-11-22T01:59:10;9.10;99.90
14099;DHT22;7126;48.458;7.930;2023-11-22T02:01:36;9.10;99.90
14099;DHT22;7126;48.458;7.930;2023-11-22T02:04:02;9.10;99.90
14099;DHT22;7126;48.458;7.930;2023-11-22T02:06:28;9.20;99.90
14099;DHT22;7126;48.458;7.930;2023-11-22T02:08:56;9.10;99.90
14099;DHT22;7126;48.458;7.930;2023-11-22T02:11:21;9.00;99.90
14099;DHT22;7126;48.458;7.930;2023-11-22T02:13:50;9.00;99.90
14099;DHT22;7126;48.458;7.930;2023-11-22T02:16:16;9.00;99.90
14099;DHT22;7126;48.458;7.930;2023-11-22T02:18:48;9.00;99.90
14099;DHT22;7126;48.458;7.930;2023-11-22T02:21:16;8.90;99.90
14099;DHT22;7126;48.458;7.930;2023-11-22T02:23:42;8.90;99.90
14099;DHT22;7126;48.458;7.930;2023-11-22T02:26:07;8.80;99.90
14099;DHT22;7126;48.458;7.930;2023-11-22T02:28:33;8.70;99.90
14099;DHT22;7126;48.458;7.930;2023-11-22T02:30:59;8.70;99.90
14099;DHT22;7126;48.458;7.930;2023-11-22T02:33:24;8.70;99.90
14099;DHT22;7126;48.458;7.930;2023-11-22T02:35:50;8.70;99.90
14099;DHT22;7126;48.458;7.930;2023-11-22T02:38:15;8.60;99.90
14099;DHT22;7126;48.458;7.930;2023-11-22T02:40:43;8.60;99.90
14099;DHT22;7126;48.458;7.930;2023-11-22T02:43:09;8.60;99.90
14099;DHT22;7126;48.458;7.930;2023-11-22T02:45:35;8.70;99.90
14099;DHT22;7126;48.458;7.930;2023-11-22T02:48:00;8.60;99.90
14099;DHT22;7126;48.458;7.930;2023-11-22T02:50:29;8.60;99.90
14099;DHT22;7126;48.458;7.930;2023-11-22T02:52:57;8.60;99.90
14099;DHT22;7126;48.458;7.930;2023-11-22T02:55:23;8.50;99.90
14099;DHT22;7126;48.458;7.930;2023-11-22T02:57:50;8.50;99.90
14099;DHT22;7126;48.458;7.930;2023-11-22T03:00:16;8.60;99.90
14099;DHT22;7126;48.458;7.930;2023-11-22T03:02:44;8.50;99.90
14099;DHT22;7126;48.458;7.930;2023-11-22T03:05:10;8.40;99.90
14099;DHT22;7126;48.458;7.930;2023-11-22T03:07:37;8.40;99.90
14099;DHT22;7126;48.458;7.930;2023-11-22T03:10:03;8.40;99.90
14099;DHT22;7126;48.458;7.930;2023-11-22T03:12:29;8.40;99.90
14099;DHT22;7126;48.458;7.930;2023-11-22T03:14:54;8.40;99.90
14099;DHT22;7126;48.458;7.930;2023-11-22T03:17:24;8.30;99.90
14099;DHT22;7126;48.458;7.930;2023-11-22T03:19:50;8.30;99.90
14099;DHT22;7126;48.458;7.930;2023-11-22T03:22:15;8.30;99.90
14099;DHT22;7126;48.458;7.930;2023-11-22T03:24:41;8.20;99.90
14099;DHT22;7126;48.458;7.930;2023-11-22T03:27:06;8.30;99.90
14099;DHT22;7126;48.458;7.930;2023-11-22T03:29:32;8.30;99.90
14099;DHT22;7126;48.458;7.930;2023-11-22T03:31:57;8.30;99.90
14099;DHT22;7126;48.458;7.930;2023-11-22T03:34:24;8.30;99.90
14099;DHT22;7126;48.458;7.930;2023-11-22T03:36:50;8.20;99.90
14099;DHT22;7126;48.458;7.930;2023-11-22T03:39:16;8.20;99.90
14099;DHT22;7126;48.458;7.930;2023-11-22T03:41:42;8.20;99.90
14099;DHT22;7126;48.458;7.930;2023-11-22T03:44:07;8.20;99.90
14099;DHT22;7126;48.458;7.930;2023-11-22T03:46:37;8.10;99.90
14099;DHT22;7126;48.458;7.930;2023-11-22T03:49:03;8.00;99.90
14099;DHT22;7126;48.458;7.930;2023-11-22T03:51:29;8.00;99.90
14099;DHT22;7126;48.458;7.930;2023-11-22T03:53:55;8.00;99.90
14099;DHT22;7126;48.458;7.930;2023-11-22T03:56:20;7.90;99.90
14099;DHT22;7126;48.458;7.930;2023-11-22T03:58:46;7.80;99.90
14099;DHT22;7126;48.458;7.930;2023-11-22T04:01:14;7.80;99.90
14099;DHT22;7126;48.458;7.930;2023-11-22T04:03:40;7.80;99.90
14099;DHT22;7126;48.458;7.930;2023-11-22T04:06:06;7.80;99.90
14099;DHT22;7126;48.458;7.930;2023-11-22T04:08:31;7.70;99.90
14099;DHT22;7126;48.458;7.930;2023-11-22T04:10:57;7.70;99.90
14099;DHT22;7126;48.458;7.930;2023-11-22T04:13:22;7.70;99.90
14099;DHT22;7126;48.458;7.930;2023-11-22T04:15:50;7.70;99.90
14099;DHT22;7126;48.458;7.930;2023-11-22T04:18:16;7.70;99.90
14099;DHT22;7126;48.458;7.930;2023-11-22T04:20:42;7.70;99.90
14099;DHT22;7126;48.458;7.930;2023-11-22T04:23:07;7.70;99.90
14099;DHT22;7126;48.458;7.930;2023-11-22T04:25:36;7.60;99.90
14099;DHT22;7126;48.458;7.930;2023-11-22T04:28:02;7.60;99.90
14099;DHT22;7126;48.458;7.930;2023-11-22T04:30:27;7.60;99.90
14099;DHT22;7126;48.458;7.930;2023-11-22T04:32:53;7.60;99.90
14099;DHT22;7126;48.458;7.930;2023-11-22T04:35:18;7.60;99.90
14099;DHT22;7126;48.458;7.930;2023-11-22T04:37:44;7.50;99.90
14099;DHT22;7126;48.458;7.930;2023-11-22T04:40:10;7.40;99.90
14099;DHT22;7126;48.458;7.930;2023-11-22T04:42:37;7.50;99.90
14099;DHT22;7126;48.458;7.930;2023-11-22T04:45:03;7.50;99.90
14099;DHT22;7126;48.458;7.930;2023-11-22T04:47:29;7.50;99.90
14099;DHT22;7126;48.458;7.930;2023-11-22T04:49:54;7.50;99.90
14099;DHT22;7126;48.458;7.930;2023-11-22T04:52:20;7.50;99.90
14099;DHT22;7126;48.458;7.930;2023-11-22T04:54:45;7.50;99.90
14099;DHT22;7126;48.458;7.930;2023-11-22T04:57:11;7.50;99.90
14099;DHT22;7126;48.458;7.930;2023-11-22T04:59:36;7.50;99.90
14099;DHT22;7126;48.458;7.930;2023-11-22T05:02:03;7.50;99.90
14099;DHT22;7126;48.458;7.930;2023-11-22T05:04:29;7.50;99.90
14099;DHT22;7126;48.458;7.930;2023-11-22T05:06:55;7.50;99.90
14099;DHT22;7126;48.458;7.930;2023-11-22T05:09:21;7.40;99.90
14099;DHT22;7126;48.458;7.930;2023-11-22T05:11:46;7.50;99.90
14099;DHT22;7126;48.458;7.930;2023-11-22T05:14:11;7.50;99.90
14099;DHT22;7126;48.458;7.930;2023-11-22T05:16:38;7.50;99.90
14099;DHT22;7126;48.458;7.930;2023-11-22T05:19:04;7.50;99.90
14099;DHT22;7126;48.458;7.930;2023-11-22T05:21:30;7.50;99.90
14099;DHT22;7126;48.458;7.930;2023-11-22T05:23:55;7.50;99.90
14099;DHT22;7126;48.458;7.930;2023-11-22T05:26:21;7.40;99.90
14099;DHT22;7126;48.458;7.930;2023-11-22T05:28:47;7.50;99.90
14099;DHT22;7126;48.458;7.930;2023-11-22T05:31:13;7.40;99.90
14099;DHT22;7126;48.458;7.930;2023-11-22T05:33:39;7.40;99.90
14099;DHT22;7126;48.458;7.930;2023-11-22T05:36:06;7.40;99.90
14099;DHT22;7126;48.458;7.930;2023-11-22T05:38:31;7.30;99.90
14099;DHT22;7126;48.458;7.930;2023-11-22T05:40:59;7.30;99.90
14099;DHT22;7126;48.458;7.930;2023-11-22T05:43:25;7.20;99.90
14099;DHT22;7126;48.458;7.930;2023-11-22T05:45:52;7.30;99.90
14099;DHT22;7126;48.458;7.930;2023-11-22T05:48:18;7.20;99.90
14099;DHT22;7126;48.458;7.930;2023-11-22T05:50:44;7.20;99.90
14099;DHT22;7126;48.458;7.930;2023-11-22T05:53:10;7.10;99.90
14099;DHT22;7126;48.458;7.930;2023-11-22T05:55:36;7.20;99.90
14099;DHT22;7126;48.458;7.930;2023-11-22T05:58:03;7.20;99.90
14099;DHT22;7126;48.458;7.930;2023-11-22T06:00:28;7.20;99.90
14099;DHT22;7126;48.458;7.930;2023-11-22T06:02:54;7.20;99.90
14099;DHT22;7126;48.458;7.930;2023-11-22T06:05:20;7.10;99.90
14099;DHT22;7126;48.458;7.930;2023-11-22T06:07:46;7.00;99.90
14099;DHT22;7126;48.458;7.930;2023-11-22T06:10:13;7.00;99.90
14099;DHT22;7126;48.458;7.930;2023-11-22T06:12:39;7.00;99.90
14099;DHT22;7126;48.458;7.930;2023-11-22T06:15:05;7.00;99.90
14099;DHT22;7126;48.458;7.930;2023-11-22T06:17:31;7.00;99.90
14099;DHT22;7126;48.458;7.930;2023-11-22T06:19:56;7.00;99.90
14099;DHT22;7126;48.458;7.930;2023-11-22T06:22:22;6.90;99.90
14099;DHT22;7126;48.458;7.930;2023-11-22T06:24:47;7.00;99.90
14099;DHT22;7126;48.458;7.930;2023-11-22T06:27:13;6.90;99.90
14099;DHT22;7126;48.458;7.930;2023-11-22T06:29:40;6.90;99.90
14099;DHT22;7126;48.458;7.930;2023-11-22T06:32:07;6.80;99.90
14099;DHT22;7126;48.458;7.930;2023-11-22T06:34:33;6.80;99.90
14099;DHT22;7126;48.458;7.930;2023-11-22T06:36:59;6.90;99.90
14099;DHT22;7126;48.458;7.930;2023-11-22T06:39:24;6.90;99.90
14099;DHT22;7126;48.458;7.930;2023-11-22T06:41:50;6.80;99.90
14099;DHT22;7126;48.458;7.930;2023-11-22T06:44:16;6.80;99.90
14099;DHT22;7126;48.458;7.930;2023-11-22T06:46:41;6.80;99.90
14099;DHT22;7126;48.458;7.930;2023-11-22T06:49:07;6.80;99.90
14099;DHT22;7126;48.458;7.930;2023-11-22T06:51:32;6.70;99.90
14099;DHT22;7126;48.458;7.930;2023-11-22T06:53:58;6.70;99.90
14099;DHT22;7126;48.458;7.930;2023-11-22T06:56:23;6.70;99.90
14099;DHT22;7126;48.458;7.930;2023-11-22T06:58:49;6.70;99.90
14099;DHT22;7126;48.458;7.930;2023-11-22T07:01:15;6.60;99.90
14099;DHT22;7126;48.458;7.930;2023-11-22T07:03:41;6.60;99.90
14099;DHT22;7126;48.458;7.930;2023-11-22T07:06:07;6.60;99.90
14099;DHT22;7126;48.458;7.930;2023-11-22T07:08:33;6.60;99.90
14099;DHT22;7126;48.458;7.930;2023-11-22T07:11:00;6.60;99.90
14099;DHT22;7126;48.458;7.930;2023-11-22T07:13:25;6.60;99.90
14099;DHT22;7126;48.458;7.930;2023-11-22T07:15:52;6.70;99.90
14099;DHT22;7126;48.458;7.930;2023-11-22T07:18:19;6.70;99.90
14099;DHT22;7126;48.458;7.930;2023-11-22T07:20:45;6.60;99.90
14099;DHT22;7126;48.458;7.930;2023-11-22T07:23:13;6.50;99.90
14099;DHT22;7126;48.458;7.930;2023-11-22T07:25:39;6.50;99.90
14099;DHT22;7126;48.458;7.930;2023-11-22T07:28:06;6.50;99.90
14099;DHT22;7126;48.458;7.930;2023-11-22T07:30:32;6.50;99.90
14099;DHT22;7126;48.458;7.930;2023-11-22T07:32:59;6.50;99.90
14099;DHT22;7126;48.458;7.930;2023-11-22T07:35:24;6.50;99.90
14099;DHT22;7126;48.458;7.930;2023-11-22T07:37:53;6.40;99.90
14099;DHT22;7126;48.458;7.930;2023-11-22T07:40:20;6.40;99.90
14099;DHT22;7126;48.458;7.930;2023-11-22T07:42:47;6.40;99.90
14099;DHT22;7126;48.458;7.930;2023-11-22T07:45:12;6.40;99.90
14099;DHT22;7126;48.458;7.930;2023-11-22T07:47:38;6.40;99.90
14099;DHT22;7126;48.458;7.930;2023-11-22T07:50:09;6.40;99.90
14099;DHT22;7126;48.458;7.930;2023-11-22T07:52:34;6.40;99.90
14099;DHT22;7126;48.458;7.930;2023-11-22T07:55:00;6.40;99.90
14099;DHT22;7126;48.458;7.930;2023-11-22T07:57:25;6.40;99.90
14099;DHT22;7126;48.458;7.930;2023-11-22T07:59:51;6.50;99.90
14099;DHT22;7126;48.458;7.930;2023-11-22T08:02:21;6.60;99.90
14099;DHT22;7126;48.458;7.930;2023-11-22T08:04:47;6.60;99.90
14099;DHT22;7126;48.458;7.930;2023-11-22T08:07:14;6.60;99.90
14099;DHT22;7126;48.458;7.930;2023-11-22T08:09:42;6.60;99.90
14099;DHT22;7126;48.458;7.930;2023-11-22T08:12:08;6.60;99.90
14099;DHT22;7126;48.458;7.930;2023-11-22T08:14:36;6.60;99.90
14099;DHT22;7126;48.458;7.930;2023-11-22T08:17:02;6.70;99.90
14099;DHT22;7126;48.458;7.930;2023-11-22T08:19:29;6.70;99.90
14099;DHT22;7126;48.458;7.930;2023-11-22T08:21:54;6.70;99.90
14099;DHT22;7126;48.458;7.930;2023-11-22T08:24:20;6.70;99.90
14099;DHT22;7126;48.458;7.930;2023-11-22T08:26:46;6.70;99.90
14099;DHT22;7126;48.458;7.930;2023-11-22T08:29:11;6.70;99.90
14099;DHT22;7126;48.458;7.930;2023-11-22T08:31:37;6.60;99.90
14099;DHT22;7126;48.458;7.930;2023-11-22T08:34:03;6.70;99.90
14099;DHT22;7126;48.458;7.930;2023-11-22T08:36:33;6.70;99.90
14099;DHT22;7126;48.458;7.930;2023-11-22T08:39:00;6.70;99.90
14099;DHT22;7126;48.458;7.930;2023-11-22T08:41:27;6.70;99.90
14099;DHT22;7126;48.458;7.930;2023-11-22T08:43:54;6.70;99.90
14099;DHT22;7126;48.458;7.930;2023-11-22T08:46:20;6.60;99.90
14099;DHT22;7126;48.458;7.930;2023-11-22T08:48:45;6.60;99.90
14099;DHT22;7126;48.458;7.930;2023-11-22T08:51:11;6.50;99.90
14099;DHT22;7126;48.458;7.930;2023-11-22T08:53:37;6.50;99.90
14099;DHT22;7126;48.458;7.930;2023-11-22T08:56:02;6.50;99.90
14099;DHT22;7126;48.458;7.930;2023-11-22T08:58:31;6.50;99.90
14099;DHT22;7126;48.458;7.930;2023-11-22T09:00:56;6.50;99.90
14099;DHT22;7126;48.458;7.930;2023-11-22T09:03:23;6.50;99.90
14099;DHT22;7126;48.458;7.930;2023-11-22T09:05:49;6.40;99.90
14099;DHT22;7126;48.458;7.930;2023-11-22T09:08:14;6.50;99.90
14099;DHT22;7126;48.458;7.930;2023-11-22T09:10:43;6.60;99.90
14099;DHT22;7126;48.458;7.930;2023-11-22T09:13:10;6.50;99.90
14099;DHT22;7126;48.458;7.930;2023-11-22T09:15:36;6.50;99.90
14099;DHT22;7126;48.458;7.930;2023-11-22T09:18:04;6.50;99.90
14099;DHT22;7126;48.458;7.930;2023-11-22T09:20:29;6.60;99.90
14099;DHT22;7126;48.458;7.930;2023-11-22T09:22:55;6.60;99.90
14099;DHT22;7126;48.458;7.930;2023-11-22T09:25:22;6.60;99.90
14099;DHT22;7126;48.458;7.930;2023-11-22T09:27:48;6.60;99.90
14099;DHT22;7126;48.458;7.930;2023-11-22T09:30:19;6.60;99.90
14099;DHT22;7126;48.458;7.930;2023-11-22T09:33:05;6.60;99.90
14099;DHT22;7126;48.458;7.930;2023-11-22T09:35:31;6.60;99.90
14099;DHT22;7126;48.458;7.930;2023-11-22T09:38:01;6.60;99.90
14099;DHT22;7126;48.458;7.930;2023-11-22T09:40:27;6.60;99.90
14099;DHT22;7126;48.458;7.930;2023-11-22T09:42:55;6.50;99.90
14099;DHT22;7126;48.458;7.930;2023-11-22T09:45:21;6.60;99.90
14099;DHT22;7126;48.458;7.930;2023-11-22T09:47:47;6.70;99.90
14099;DHT22;7126;48.458;7.930;2023-11-22T09:50:35;6.70;99.90
14099;DHT22;7126;48.458;7.930;2023-11-22T09:53:12;6.60;99.90
14099;DHT22;7126;48.458;7.930;2023-11-22T09:55:41;6.70;99.90
14099;DHT22;7126;48.458;7.930;2023-11-22T09:58:11;6.70;99.90
14099;DHT22;7126;48.458;7.930;2023-11-22T10:00:39;6.80;99.90
14099;DHT22;7126;48.458;7.930;2023-11-22T10:03:06;6.80;99.90
14099;DHT22;7126;48.458;7.930;2023-11-22T10:05:32;6.90;99.90
14099;DHT22;7126;48.458;7.930;2023-11-22T10:07:57;6.90;99.90
14099;DHT22;7126;48.458;7.930;2023-11-22T10:10:23;7.00;99.90
14099;DHT22;7126;48.458;7.930;2023-11-22T10:12:54;7.00;99.90
14099;DHT22;7126;48.458;7.930;2023-11-22T10:15:22;7.00;99.90
14099;DHT22;7126;48.458;7.930;2023-11-22T10:17:58;7.00;99.90
14099;DHT22;7126;48.458;7.930;2023-11-22T10:20:39;7.00;99.90
14099;DHT22;7126;48.458;7.930;2023-11-22T10:23:11;7.00;99.90
14099;DHT22;7126;48.458;7.930;2023-11-22T10:25:52;7.10;99.90
14099;DHT22;7126;48.458;7.930;2023-11-22T10:28:18;7.10;99.90
14099;DHT22;7126;48.458;7.930;2023-11-22T10:30:48;7.10;99.90
14099;DHT22;7126;48.458;7.930;2023-11-22T10:33:15;7.10;99.90
14099;DHT22;7126;48.458;7.930;2023-11-22T10:35:44;7.20;99.90
14099;DHT22;7126;48.458;7.930;2023-11-22T10:38:13;7.20;99.90
14099;DHT22;7126;48.458;7.930;2023-11-22T10:40:38;7.30;99.90
14099;DHT22;7126;48.458;7.930;2023-11-22T10:43:05;7.30;99.90
14099;DHT22;7126;48.458;7.930;2023-11-22T10:45:33;7.30;99.90
14099;DHT22;7126;48.458;7.930;2023-11-22T10:48:00;7.30;99.90
14099;DHT22;7126;48.458;7.930;2023-11-22T10:50:26;7.30;99.90
14099;DHT22;7126;48.458;7.930;2023-11-22T10:52:56;7.30;99.90
14099;DHT22;7126;48.458;7.930;2023-11-22T10:55:26;7.30;99.90
14099;DHT22;7126;48.458;7.930;2023-11-22T10:57:55;7.40;99.90
14099;DHT22;7126;48.458;7.930;2023-11-22T11:00:22;7.40;99.90
14099;DHT22;7126;48.458;7.930;2023-11-22T11:02:53;7.40;99.90
14099;DHT22;7126;48.458;7.930;2023-11-22T11:05:27;7.40;99.90
14099;DHT22;7126;48.458;7.930;2023-11-22T11:08:07;7.40;99.90
14099;DHT22;7126;48.458;7.930;2023-11-22T11:10:39;7.40;99.90
14099;DHT22;7126;48.458;7.930;2023-11-22T11:13:05;7.40;99.90
14099;DHT22;7126;48.458;7.930;2023-11-22T11:15:31;7.50;99.90
14099;DHT22;7126;48.458;7.930;2023-11-22T11:17:58;7.60;99.90
14099;DHT22;7126;48.458;7.930;2023-11-22T11:20:24;7.60;99.90
14099;DHT22;7126;48.458;7.930;2023-11-22T11:22:49;7.70;99.90
14099;DHT22;7126;48.458;7.930;2023-11-22T11:25:16;7.70;99.90
14099;DHT22;7126;48.458;7.930;2023-11-22T11:27:44;7.70;99.90
14099;DHT22;7126;48.458;7.930;2023-11-22T11:30:44;7.60;99.90
14099;DHT22;7126;48.458;7.930;2023-11-22T11:33:12;7.60;99.90
14099;DHT22;7126;48.458;7.930;2023-11-22T11:35:48;7.70;99.90
14099;DHT22;7126;48.458;7.930;2023-11-22T11:38:21;7.70;99.90
14099;DHT22;7126;48.458;7.930;2023-11-22T11:40:49;7.80;99.90
14099;DHT22;7126;48.458;7.930;2023-11-22T11:43:20;7.80;99.90
14099;DHT22;7126;48.458;7.930;2023-11-22T11:45:46;7.80;99.90
14099;DHT22;7126;48.458;7.930;2023-11-22T11:48:16;7.80;99.90
14099;DHT22;7126;48.458;7.930;2023-11-22T11:50:42;7.80;99.90
14099;DHT22;7126;48.458;7.930;2023-11-22T11:53:09;7.80;99.90
14099;DHT22;7126;48.458;7.930;2023-11-22T11:55:36;7.90;99.90
14099;DHT22;7126;48.458;7.930;2023-11-22T11:58:06;7.80;99.90
14099;DHT22;7126;48.458;7.930;2023-11-22T12:00:36;7.80;99.90
14099;DHT22;7126;48.458;7.930;2023-11-22T12:03:06;7.80;99.90
14099;DHT22;7126;48.458;7.930;2023-11-22T12:05:32;7.70;99.90
14099;DHT22;7126;48.458;7.930;2023-11-22T12:07:58;7.70;99.90
14099;DHT22;7126;48.458;7.930;2023-11-22T12:10:23;7.70;99.90
14099;DHT22;7126;48.458;7.930;2023-11-22T12:12:49;7.70;99.90
14099;DHT22;7126;48.458;7.930;2023-11-22T12:15:15;7.70;99.90
14099;DHT22;7126;48.458;7.930;2023-11-22T12:17:41;7.70;99.90
14099;DHT22;7126;48.458;7.930;2023-11-22T12:20:14;7.70;99.90
14099;DHT22;7126;48.458;7.930;2023-11-22T12:22:45;7.80;99.90
14099;DHT22;7126;48.458;7.930;2023-11-22T12:25:11;7.80;99.90
14099;DHT22;7126;48.458;7.930;2023-11-22T12:27:41;7.80;99.90
14099;DHT22;7126;48.458;7.930;2023-11-22T12:30:08;7.80;99.90
14099;DHT22;7126;48.458;7.930;2023-11-22T12:32:38;7.70;99.90
14099;DHT22;7126;48.458;7.930;2023-11-22T12:35:04;7.60;99.90
14099;DHT22;7126;48.458;7.930;2023-11-22T12:37:33;7.60;99.90
14099;DHT22;7126;48.458;7.930;2023-11-22T12:39:58;7.50;99.90
14099;DHT22;7126;48.458;7.930;2023-11-22T12:42:24;7.50;99.90
14099;DHT22;7126;48.458;7.930;2023-11-22T12:44:51;7.50;99.90
14099;DHT22;7126;48.458;7.930;2023-11-22T12:47:35;7.50;99.90
14099;DHT22;7126;48.458;7.930;2023-11-22T12:50:02;7.40;99.90
14099;DHT22;7126;48.458;7.930;2023-11-22T12:52:29;7.40;99.90
14099;DHT22;7126;48.458;7.930;2023-11-22T12:54:55;7.40;99.90
14099;DHT22;7126;48.458;7.930;2023-11-22T12:57:21;7.40;99.90
14099;DHT22;7126;48.458;7.930;2023-11-22T12:59:48;7.40;99.90
14099;DHT22;7126;48.458;7.930;2023-11-22T13:02:13;7.40;99.90
14099;DHT22;7126;48.458;7.930;2023-11-22T13:04:40;7.40;99.90
14099;DHT22;7126;48.458;7.930;2023-11-22T13:07:06;7.40;99.90
14099;DHT22;7126;48.458;7.930;2023-11-22T13:09:31;7.50;99.90
14099;DHT22;7126;48.458;7.930;2023-11-22T13:11:59;7.50;99.90
14099;DHT22;7126;48.458;7.930;2023-11-22T13:14:24;7.40;99.90
14099;DHT22;7126;48.458;7.930;2023-11-22T13:16:51;7.40;99.90
14099;DHT22;7126;48.458;7.930;2023-11-22T13:19:17;7.40;99.90
14099;DHT22;7126;48.458;7.930;2023-11-22T13:21:42;7.30;99.90
14099;DHT22;7126;48.458;7.930;2023-11-22T13:24:10;7.20;99.90
14099;DHT22;7126;48.458;7.930;2023-11-22T13:26:37;7.20;99.90
14099;DHT22;7126;48.458;7.930;2023-11-22T13:29:03;7.20;99.90
14099;DHT22;7126;48.458;7.930;2023-11-22T13:31:29;7.20;99.90
14099;DHT22;7126;48.458;7.930;2023-11-22T13:33:54;7.10;99.90
14099;DHT22;7126;48.458;7.930;2023-11-22T13:36:20;7.10;99.90
14099;DHT22;7126;48.458;7.930;2023-11-22T13:38:45;7.20;99.90
14099;DHT22;7126;48.458;7.930;2023-11-22T13:41:11;7.20;99.90
14099;DHT22;7126;48.458;7.930;2023-11-22T13:43:37;7.20;99.90
14099;DHT22;7126;48.458;7.930;2023-11-22T13:46:02;7.20;99.90
14099;DHT22;7126;48.458;7.930;2023-11-22T13:48:28;7.20;99.90
14099;DHT22;7126;48.458;7.930;2023-11-22T13:50:54;7.20;99.90
14099;DHT22;7126;48.458;7.930;2023-11-22T13:53:20;7.30;99.90
14099;DHT22;7126;48.458;7.930;2023-11-22T13:55:48;7.30;99.90
14099;DHT22;7126;48.458;7.930;2023-11-22T13:58:13;7.30;99.90
14099;DHT22;7126;48.458;7.930;2023-11-22T14:00:39;7.30;99.90
14099;DHT22;7126;48.458;7.930;2023-11-22T14:03:05;7.20;99.90
14099;DHT22;7126;48.458;7.930;2023-11-22T14:05:36;7.10;99.90
14099;DHT22;7126;48.458;7.930;2023-11-22T14:08:04;7.20;99.90
14099;DHT22;7126;48.458;7.930;2023-11-22T14:10:29;7.20;99.90
14099;DHT22;7126;48.458;7.930;2023-11-22T14:12:55;7.10;99.90
14099;DHT22;7126;48.458;7.930;2023-11-22T14:15:25;7.10;99.90
14099;DHT22;7126;48.458;7.930;2023-11-22T14:17:51;7.10;99.90
14099;DHT22;7126;48.458;7.930;2023-11-22T14:20:18;7.20;99.90
14099;DHT22;7126;48.458;7.930;2023-11-22T14:22:43;7.20;99.90
14099;DHT22;7126;48.458;7.930;2023-11-22T14:25:10;7.20;99.90
14099;DHT22;7126;48.458;7.930;2023-11-22T14:27:42;7.10;99.90
14099;DHT22;7126;48.458;7.930;2023-11-22T14:30:09;7.10;99.90
14099;DHT22;7126;48.458;7.930;2023-11-22T14:32:36;7.10;99.90
14099;DHT22;7126;48.458;7.930;2023-11-22T14:35:03;7.10;99.90
14099;DHT22;7126;48.458;7.930;2023-11-22T14:37:28;7.10;99.90
14099;DHT22;7126;48.458;7.930;2023-11-22T14:39:55;7.00;99.90
14099;DHT22;7126;48.458;7.930;2023-11-22T14:42:21;7.00;99.90
14099;DHT22;7126;48.458;7.930;2023-11-22T14:44:46;6.90;99.90
14099;DHT22;7126;48.458;7.930;2023-11-22T14:47:12;6.90;99.90
14099;DHT22;7126;48.458;7.930;2023-11-22T14:49:41;6.90;99.90
14099;DHT22;7126;48.458;7.930;2023-11-22T14:52:07;6.90;99.90
14099;DHT22;7126;48.458;7.930;2023-11-22T14:54:35;6.90;99.90
14099;DHT22;7126;48.458;7.930;2023-11-22T14:57:01;6.90;99.90
14099;DHT22;7126;48.458;7.930;2023-11-22T14:59:28;6.90;99.90
14099;DHT22;7126;48.458;7.930;2023-11-22T15:01:56;6.80;99.90
14099;DHT22;7126;48.458;7.930;2023-11-22T15:04:23;6.80;99.90
14099;DHT22;7126;48.458;7.930;2023-11-22T15:06:49;6.90;99.90
14099;DHT22;7126;48.458;7.930;2023-11-22T15:09:15;6.90;99.90
14099;DHT22;7126;48.458;7.930;2023-11-22T15:11:42;6.90;99.90
14099;DHT22;7126;48.458;7.930;2023-11-22T15:14:07;6.90;99.90
14099;DHT22;7126;48.458;7.930;2023-11-22T15:16:33;6.90;99.90
14099;DHT22;7126;48.458;7.930;2023-11-22T15:18:58;6.90;99.90
14099;DHT22;7126;48.458;7.930;2023-11-22T15:21:28;6.80;99.90
14099;DHT22;7126;48.458;7.930;2023-11-22T15:23:53;6.70;99.90
14099;DHT22;7126;48.458;7.930;2023-11-22T15:26:24;6.70;99.90
14099;DHT22;7126;48.458;7.930;2023-11-22T15:28:50;6.80;99.90
14099;DHT22;7126;48.458;7.930;2023-11-22T15:31:16;6.80;99.90
14099;DHT22;7126;48.458;7.930;2023-11-22T15:33:42;6.80;99.90
14099;DHT22;7126;48.458;7.930;2023-11-22T15:36:08;6.70;99.90
14099;DHT22;7126;48.458;7.930;2023-11-22T15:38:33;6.70;99.90
14099;DHT22;7126;48.458;7.930;2023-11-22T15:41:01;6.70;99.90
14099;DHT22;7126;48.458;7.930;2023-11-22T15:43:28;6.70;99.90
14099;DHT22;7126;48.458;7.930;2023-11-22T15:45:58;6.60;99.90
14099;DHT22;7126;48.458;7.930;2023-11-22T15:48:24;6.50;99.90
14099;DHT22;7126;48.458;7.930;2023-11-22T15:50:53;6.50;99.90
14099;DHT22;7126;48.458;7.930;2023-11-22T15:53:19;6.50;99.90
14099;DHT22;7126;48.458;7.930;2023-11-22T15:55:45;6.50;99.90
14099;DHT22;7126;48.458;7.930;2023-11-22T15:58:10;6.40;99.90